sensor_id;sensor_type;location;lat;lon;timestamp;P1;durP1;ratioP1;P2;durP2;ratioP2
50379;SDS011;37474;59.468;18.040;2022-10-30T00:00:21;1.37;;;0.50;;
50379;SDS011;37474;59.468;18.040;2022-10-30T00:02:50;2.17;;;0.57;;
50379;SDS011;37474;59.468;18.040;2022-10-30T00:05:21;1.87;;;0.50;;
50379;SDS011;37474;59.468;18.040;2022-10-30T00:07:49;2.83;;;0.33;;
50379;SDS011;37474;59.468;18.040;2022-10-30T00:10:20;1.53;;;0.70;;
50379;SDS011;37474;59.468;18.040;2022-10-30T00:12:51;3.07;;;0.63;;
50379;SDS011;37474;59.468;18.040;2022-10-30T00:15:19;3.08;;;0.52;;
50379;SDS011;37474;59.468;18.040;2022-10-30T00:17:49;2.50;;;0.60;;
50379;SDS011;37474;59.468;18.040;2022-10-30T00:20:19;4.07;;;0.50;;
50379;SDS011;37474;59.468;18.040;2022-10-30T00:22:47;2.30;;;0.50;;
50379;SDS011;37474;59.468;18.040;2022-10-30T00:25:17;3.30;;;0.60;;
50379;SDS011;37474;59.468;18.040;2022-10-30T00:27:46;2.10;;;0.50;;
50379;SDS011;37474;59.468;18.040;2022-10-30T00:30:16;2.17;;;0.40;;
50379;SDS011;37474;59.468;18.040;2022-10-30T00:32:45;2.10;;;0.60;;
50379;SDS011;37474;59.468;18.040;2022-10-30T00:35:16;2.33;;;0.40;;
50379;SDS011;37474;59.468;18.040;2022-10-30T00:37:43;2.63;;;0.40;;
50379;SDS011;37474;59.468;18.040;2022-10-30T00:40:17;2.77;;;0.60;;
50379;SDS011;37474;59.468;18.040;2022-10-30T00:42:47;2.20;;;0.40;;
50379;SDS011;37474;59.468;18.040;2022-10-30T00:45:19;2.80;;;0.60;;
50379;SDS011;37474;59.468;18.040;2022-10-30T00:47:49;3.00;;;0.73;;
50379;SDS011;37474;59.468;18.040;2022-10-30T00:50:24;3.67;;;0.50;;
50379;SDS011;37474;59.468;18.040;2022-10-30T00:52:55;2.10;;;0.57;;
50379;SDS011;37474;59.468;18.040;2022-10-30T00:55:32;3.40;;;0.57;;
50379;SDS011;37474;59.468;18.040;2022-10-30T00:58:04;2.40;;;0.50;;
50379;SDS011;37474;59.468;18.040;2022-10-30T01:00:38;2.10;;;0.57;;
50379;SDS011;37474;59.468;18.040;2022-10-30T01:03:10;1.20;;;0.40;;
50379;SDS011;37474;59.468;18.040;2022-10-30T01:05:40;1.67;;;0.60;;
50379;SDS011;37474;59.468;18.040;2022-10-30T01:08:12;1.50;;;0.40;;
50379;SDS011;37474;59.468;18.040;2022-10-30T01:10:40;1.53;;;0.60;;
50379;SDS011;37474;59.468;18.040;2022-10-30T01:13:11;1.47;;;0.60;;
50379;SDS011;37474;59.468;18.040;2022-10-30T01:15:44;0.60;;;0.50;;
50379;SDS011;37474;59.468;18.040;2022-10-30T01:18:32;3.90;;;0.90;;
50379;SDS011;37474;59.468;18.040;2022-10-30T01:21:11;2.50;;;0.60;;
50379;SDS011;37474;59.468;18.040;2022-10-30T01:23:52;2.63;;;0.50;;
50379;SDS011;37474;59.468;18.040;2022-10-30T01:26:33;1.13;;;0.50;;
50379;SDS011;37474;59.468;18.040;2022-10-30T01:29:14;3.03;;;0.50;;
50379;SDS011;37474;59.468;18.040;2022-10-30T01:32:10;1.88;;;0.75;;
50379;SDS011;37474;59.468;18.040;2022-10-30T01:34:48;2.67;;;0.70;;
50379;SDS011;37474;59.468;18.040;2022-10-30T01:37:27;2.47;;;0.50;;
50379;SDS011;37474;59.468;18.040;2022-10-30T01:40:05;3.63;;;0.60;;
50379;SDS011;37474;59.468;18.040;2022-10-30T01:42:47;1.97;;;0.60;;
50379;SDS011;37474;59.468;18.040;2022-10-30T01:45:20;3.87;;;0.70;;
50379;SDS011;37474;59.468;18.040;2022-10-30T01:47:59;2.93;;;0.70;;
50379;SDS011;37474;59.468;18.040;2022-10-30T01:50:47;0.60;;;0.40;;
50379;SDS011;37474;59.468;18.040;2022-10-30T01:53:28;1.88;;;0.50;;
50379;SDS011;37474;59.468;18.040;2022-10-30T01:56:13;6.10;;;1.03;;
50379;SDS011;37474;59.468;18.040;2022-10-30T01:58:49;1.63;;;0.57;;
50379;SDS011;37474;59.468;18.040;2022-10-30T02:01:23;0.70;;;0.47;;
50379;SDS011;37474;59.468;18.040;2022-10-30T02:03:56;1.87;;;0.50;;
50379;SDS011;37474;59.468;18.040;2022-10-30T02:06:26;4.43;;;0.87;;
50379;SDS011;37474;59.468;18.040;2022-10-30T02:08:54;3.20;;;0.60;;
50379;SDS011;37474;59.468;18.040;2022-10-30T02:11:24;3.10;;;0.60;;
50379;SDS011;37474;59.468;18.040;2022-10-30T02:13:55;2.67;;;0.53;;
50379;SDS011;37474;59.468;18.040;2022-10-30T02:16:25;5.13;;;1.10;;
50379;SDS011;37474;59.468;18.040;2022-10-30T02:18:56;3.77;;;0.63;;
50379;SDS011;37474;59.468;18.040;2022-10-30T02:21:29;3.57;;;0.50;;
50379;SDS011;37474;59.468;18.040;2022-10-30T02:23:58;2.00;;;0.70;;
50379;SDS011;37474;59.468;18.040;2022-10-30T02:26:28;2.80;;;0.50;;
50379;SDS011;37474;59.468;18.040;2022-10-30T02:28:56;2.88;;;0.55;;
50379;SDS011;37474;59.468;18.040;2022-10-30T02:31:24;2.53;;;0.50;;
50379;SDS011;37474;59.468;18.040;2022-10-30T02:33:54;1.93;;;0.50;;
50379;SDS011;37474;59.468;18.040;2022-10-30T02:36:23;1.40;;;0.47;;
50379;SDS011;37474;59.468;18.040;2022-10-30T02:38:54;3.78;;;0.45;;
50379;SDS011;37474;59.468;18.040;2022-10-30T02:41:24;3.80;;;0.63;;
50379;SDS011;37474;59.468;18.040;2022-10-30T02:43:52;2.22;;;0.45;;
50379;SDS011;37474;59.468;18.040;2022-10-30T02:46:20;2.43;;;0.53;;
50379;SDS011;37474;59.468;18.040;2022-10-30T02:48:50;2.10;;;0.50;;
50379;SDS011;37474;59.468;18.040;2022-10-30T02:51:18;0.98;;;0.50;;
50379;SDS011;37474;59.468;18.040;2022-10-30T02:53:48;5.18;;;0.63;;
50379;SDS011;37474;59.468;18.040;2022-10-30T02:56:18;2.53;;;0.40;;
50379;SDS011;37474;59.468;18.040;2022-10-30T03:01:17;4.13;;;0.80;;
50379;SDS011;37474;59.468;18.040;2022-10-30T03:03:48;1.67;;;0.63;;
50379;SDS011;37474;59.468;18.040;2022-10-30T03:06:16;3.97;;;0.47;;
50379;SDS011;37474;59.468;18.040;2022-10-30T03:08:48;3.30;;;0.50;;
50379;SDS011;37474;59.468;18.040;2022-10-30T03:11:18;2.50;;;0.55;;
50379;SDS011;37474;59.468;18.040;2022-10-30T03:13:48;1.77;;;0.70;;
50379;SDS011;37474;59.468;18.040;2022-10-30T03:16:19;2.13;;;0.43;;
50379;SDS011;37474;59.468;18.040;2022-10-30T03:18:48;3.83;;;0.70;;
50379;SDS011;37474;59.468;18.040;2022-10-30T03:21:22;2.70;;;0.80;;
50379;SDS011;37474;59.468;18.040;2022-10-30T03:23:54;5.00;;;0.70;;
50379;SDS011;37474;59.468;18.040;2022-10-30T03:26:27;4.47;;;0.80;;
50379;SDS011;37474;59.468;18.040;2022-10-30T03:28:57;4.97;;;0.70;;
50379;SDS011;37474;59.468;18.040;2022-10-30T03:31:25;1.30;;;0.47;;
50379;SDS011;37474;59.468;18.040;2022-10-30T03:33:54;5.18;;;0.77;;
50379;SDS011;37474;59.468;18.040;2022-10-30T03:36:24;5.47;;;0.83;;
50379;SDS011;37474;59.468;18.040;2022-10-30T03:38:55;3.13;;;0.80;;
50379;SDS011;37474;59.468;18.040;2022-10-30T03:41:24;1.13;;;0.50;;
50379;SDS011;37474;59.468;18.040;2022-10-30T03:43:54;2.03;;;0.47;;
50379;SDS011;37474;59.468;18.040;2022-10-30T03:46:24;2.77;;;0.60;;
50379;SDS011;37474;59.468;18.040;2022-10-30T03:48:53;1.57;;;0.60;;
50379;SDS011;37474;59.468;18.040;2022-10-30T03:51:21;1.53;;;0.60;;
50379;SDS011;37474;59.468;18.040;2022-10-30T03:53:51;2.50;;;0.63;;
50379;SDS011;37474;59.468;18.040;2022-10-30T03:56:21;1.90;;;0.57;;
50379;SDS011;37474;59.468;18.040;2022-10-30T03:58:49;4.13;;;0.70;;
50379;SDS011;37474;59.468;18.040;2022-10-30T04:01:20;0.83;;;0.50;;
50379;SDS011;37474;59.468;18.040;2022-10-30T04:03:48;1.33;;;0.60;;
50379;SDS011;37474;59.468;18.040;2022-10-30T04:06:16;3.27;;;0.70;;
50379;SDS011;37474;59.468;18.040;2022-10-30T04:08:46;4.37;;;0.60;;
50379;SDS011;37474;59.468;18.040;2022-10-30T04:11:16;2.17;;;0.53;;
50379;SDS011;37474;59.468;18.040;2022-10-30T04:13:44;2.23;;;0.63;;
50379;SDS011;37474;59.468;18.040;2022-10-30T04:16:14;1.63;;;0.70;;
50379;SDS011;37474;59.468;18.040;2022-10-30T04:18:45;1.90;;;0.50;;
50379;SDS011;37474;59.468;18.040;2022-10-30T04:21:13;2.00;;;0.50;;
50379;SDS011;37474;59.468;18.040;2022-10-30T04:23:43;2.93;;;0.70;;
50379;SDS011;37474;59.468;18.040;2022-10-30T04:26:12;3.40;;;0.83;;
50379;SDS011;37474;59.468;18.040;2022-10-30T04:28:41;2.00;;;0.57;;
50379;SDS011;37474;59.468;18.040;2022-10-30T04:31:11;2.43;;;0.70;;
50379;SDS011;37474;59.468;18.040;2022-10-30T04:33:41;3.30;;;0.73;;
50379;SDS011;37474;59.468;18.040;2022-10-30T04:36:10;4.03;;;0.87;;
50379;SDS011;37474;59.468;18.040;2022-10-30T04:38:40;1.90;;;0.53;;
50379;SDS011;37474;59.468;18.040;2022-10-30T04:41:10;5.70;;;0.70;;
50379;SDS011;37474;59.468;18.040;2022-10-30T04:43:37;5.13;;;0.63;;
50379;SDS011;37474;59.468;18.040;2022-10-30T04:46:07;4.90;;;0.80;;
50379;SDS011;37474;59.468;18.040;2022-10-30T04:48:37;3.20;;;0.60;;
50379;SDS011;37474;59.468;18.040;2022-10-30T04:51:06;1.73;;;0.40;;
50379;SDS011;37474;59.468;18.040;2022-10-30T04:53:38;4.57;;;0.77;;
50379;SDS011;37474;59.468;18.040;2022-10-30T04:56:07;2.67;;;0.90;;
50379;SDS011;37474;59.468;18.040;2022-10-30T04:58:35;1.83;;;0.70;;
50379;SDS011;37474;59.468;18.040;2022-10-30T05:01:05;0.93;;;0.60;;
50379;SDS011;37474;59.468;18.040;2022-10-30T05:03:34;5.03;;;0.75;;
50379;SDS011;37474;59.468;18.040;2022-10-30T05:06:02;1.93;;;0.50;;
50379;SDS011;37474;59.468;18.040;2022-10-30T05:08:35;2.47;;;0.50;;
50379;SDS011;37474;59.468;18.040;2022-10-30T05:11:06;1.87;;;0.60;;
50379;SDS011;37474;59.468;18.040;2022-10-30T05:13:34;4.10;;;0.73;;
50379;SDS011;37474;59.468;18.040;2022-10-30T05:16:04;2.50;;;0.60;;
50379;SDS011;37474;59.468;18.040;2022-10-30T05:18:34;1.07;;;0.50;;
50379;SDS011;37474;59.468;18.040;2022-10-30T05:21:02;0.60;;;0.60;;
50379;SDS011;37474;59.468;18.040;2022-10-30T05:23:32;1.63;;;0.90;;
50379;SDS011;37474;59.468;18.040;2022-10-30T05:26:01;4.97;;;1.00;;
50379;SDS011;37474;59.468;18.040;2022-10-30T05:28:29;1.13;;;0.70;;
50379;SDS011;37474;59.468;18.040;2022-10-30T05:30:59;1.80;;;0.50;;
50379;SDS011;37474;59.468;18.040;2022-10-30T05:33:29;3.87;;;0.73;;
50379;SDS011;37474;59.468;18.040;2022-10-30T05:35:57;2.23;;;0.60;;
50379;SDS011;37474;59.468;18.040;2022-10-30T05:38:27;1.90;;;0.60;;
50379;SDS011;37474;59.468;18.040;2022-10-30T05:40:57;2.17;;;0.67;;
50379;SDS011;37474;59.468;18.040;2022-10-30T05:43:26;2.50;;;0.67;;
50379;SDS011;37474;59.468;18.040;2022-10-30T05:45:54;3.00;;;0.70;;
50379;SDS011;37474;59.468;18.040;2022-10-30T05:48:26;2.65;;;0.65;;
50379;SDS011;37474;59.468;18.040;2022-10-30T05:50:54;4.07;;;1.05;;
50379;SDS011;37474;59.468;18.040;2022-10-30T05:53:22;3.80;;;0.70;;
50379;SDS011;37474;59.468;18.040;2022-10-30T05:55:55;2.03;;;0.60;;
50379;SDS011;37474;59.468;18.040;2022-10-30T05:58:23;4.07;;;0.70;;
50379;SDS011;37474;59.468;18.040;2022-10-30T06:00:53;2.70;;;0.60;;
50379;SDS011;37474;59.468;18.040;2022-10-30T06:03:28;3.13;;;0.60;;
50379;SDS011;37474;59.468;18.040;2022-10-30T06:05:56;1.58;;;0.55;;
50379;SDS011;37474;59.468;18.040;2022-10-30T06:08:25;2.72;;;0.70;;
50379;SDS011;37474;59.468;18.040;2022-10-30T06:10:55;2.70;;;0.60;;
50379;SDS011;37474;59.468;18.040;2022-10-30T06:13:23;0.60;;;0.60;;
50379;SDS011;37474;59.468;18.040;2022-10-30T06:15:55;3.45;;;0.65;;
50379;SDS011;37474;59.468;18.040;2022-10-30T06:18:28;2.23;;;0.60;;
50379;SDS011;37474;59.468;18.040;2022-10-30T06:20:58;2.60;;;0.67;;
50379;SDS011;37474;59.468;18.040;2022-10-30T06:23:25;3.23;;;0.80;;
50379;SDS011;37474;59.468;18.040;2022-10-30T06:25:55;2.70;;;1.13;;
50379;SDS011;37474;59.468;18.040;2022-10-30T06:28:27;2.10;;;0.77;;
50379;SDS011;37474;59.468;18.040;2022-10-30T06:30:56;3.25;;;0.60;;
50379;SDS011;37474;59.468;18.040;2022-10-30T06:33:24;1.87;;;0.70;;
50379;SDS011;37474;59.468;18.040;2022-10-30T06:35:54;2.27;;;0.67;;
50379;SDS011;37474;59.468;18.040;2022-10-30T06:38:22;2.05;;;0.50;;
50379;SDS011;37474;59.468;18.040;2022-10-30T06:40:50;2.93;;;0.60;;
50379;SDS011;37474;59.468;18.040;2022-10-30T06:43:22;2.45;;;0.70;;
50379;SDS011;37474;59.468;18.040;2022-10-30T06:45:50;1.20;;;0.40;;
50379;SDS011;37474;59.468;18.040;2022-10-30T06:48:19;1.43;;;0.80;;
50379;SDS011;37474;59.468;18.040;2022-10-30T06:50:52;1.93;;;0.50;;
50379;SDS011;37474;59.468;18.040;2022-10-30T06:53:20;1.03;;;0.50;;
50379;SDS011;37474;59.468;18.040;2022-10-30T06:55:56;4.23;;;0.73;;
50379;SDS011;37474;59.468;18.040;2022-10-30T06:58:28;6.80;;;0.90;;
50379;SDS011;37474;59.468;18.040;2022-10-30T07:01:07;0.80;;;0.50;;
50379;SDS011;37474;59.468;18.040;2022-10-30T07:03:38;2.60;;;0.60;;
50379;SDS011;37474;59.468;18.040;2022-10-30T07:06:06;2.90;;;0.70;;
50379;SDS011;37474;59.468;18.040;2022-10-30T07:08:35;1.33;;;0.60;;
50379;SDS011;37474;59.468;18.040;2022-10-30T07:11:04;2.10;;;0.80;;
50379;SDS011;37474;59.468;18.040;2022-10-30T07:13:34;4.03;;;0.80;;
50379;SDS011;37474;59.468;18.040;2022-10-30T07:16:02;3.72;;;0.75;;
50379;SDS011;37474;59.468;18.040;2022-10-30T07:18:32;1.83;;;0.68;;
50379;SDS011;37474;59.468;18.040;2022-10-30T07:21:01;2.90;;;0.70;;
50379;SDS011;37474;59.468;18.040;2022-10-30T07:23:29;3.43;;;0.87;;
50379;SDS011;37474;59.468;18.040;2022-10-30T07:25:58;2.72;;;0.70;;
50379;SDS011;37474;59.468;18.040;2022-10-30T07:28:29;1.77;;;0.60;;
50379;SDS011;37474;59.468;18.040;2022-10-30T07:30:57;3.00;;;0.60;;
50379;SDS011;37474;59.468;18.040;2022-10-30T07:33:26;2.40;;;0.60;;
50379;SDS011;37474;59.468;18.040;2022-10-30T07:35:58;3.30;;;0.80;;
50379;SDS011;37474;59.468;18.040;2022-10-30T07:38:30;1.90;;;1.07;;
50379;SDS011;37474;59.468;18.040;2022-10-30T07:41:00;1.67;;;0.70;;
50379;SDS011;37474;59.468;18.040;2022-10-30T07:43:28;1.60;;;0.70;;
50379;SDS011;37474;59.468;18.040;2022-10-30T07:45:56;2.23;;;0.60;;
50379;SDS011;37474;59.468;18.040;2022-10-30T07:48:26;1.30;;;0.40;;
50379;SDS011;37474;59.468;18.040;2022-10-30T07:50:53;0.98;;;0.50;;
50379;SDS011;37474;59.468;18.040;2022-10-30T07:53:25;2.40;;;0.70;;
50379;SDS011;37474;59.468;18.040;2022-10-30T07:55:53;1.50;;;0.50;;
50379;SDS011;37474;59.468;18.040;2022-10-30T07:58:21;1.83;;;0.50;;
50379;SDS011;37474;59.468;18.040;2022-10-30T08:00:49;3.20;;;0.73;;
50379;SDS011;37474;59.468;18.040;2022-10-30T08:03:17;1.83;;;0.60;;
50379;SDS011;37474;59.468;18.040;2022-10-30T08:05:44;1.77;;;0.60;;
50379;SDS011;37474;59.468;18.040;2022-10-30T08:08:12;1.03;;;0.50;;
50379;SDS011;37474;59.468;18.040;2022-10-30T08:10:44;2.30;;;0.50;;
50379;SDS011;37474;59.468;18.040;2022-10-30T08:13:12;3.80;;;0.70;;
50379;SDS011;37474;59.468;18.040;2022-10-30T08:15:40;2.57;;;0.60;;
50379;SDS011;37474;59.468;18.040;2022-10-30T08:18:10;4.73;;;0.70;;
50379;SDS011;37474;59.468;18.040;2022-10-30T08:20:38;1.95;;;1.13;;
50379;SDS011;37474;59.468;18.040;2022-10-30T08:23:08;2.78;;;0.75;;
50379;SDS011;37474;59.468;18.040;2022-10-30T08:25:38;4.53;;;0.60;;
50379;SDS011;37474;59.468;18.040;2022-10-30T08:28:08;3.08;;;0.75;;
50379;SDS011;37474;59.468;18.040;2022-10-30T08:30:41;1.77;;;0.60;;
50379;SDS011;37474;59.468;18.040;2022-10-30T08:33:09;3.97;;;0.75;;
50379;SDS011;37474;59.468;18.040;2022-10-30T08:35:45;4.00;;;0.70;;
50379;SDS011;37474;59.468;18.040;2022-10-30T08:38:18;2.00;;;0.70;;
50379;SDS011;37474;59.468;18.040;2022-10-30T08:40:46;2.23;;;0.63;;
50379;SDS011;37474;59.468;18.040;2022-10-30T08:43:17;3.73;;;0.60;;
50379;SDS011;37474;59.468;18.040;2022-10-30T08:45:46;1.77;;;0.63;;
50379;SDS011;37474;59.468;18.040;2022-10-30T08:48:14;0.97;;;0.50;;
50379;SDS011;37474;59.468;18.040;2022-10-30T08:50:45;3.33;;;0.50;;
50379;SDS011;37474;59.468;18.040;2022-10-30T08:53:15;2.90;;;0.70;;
50379;SDS011;37474;59.468;18.040;2022-10-30T08:55:42;4.20;;;0.50;;
50379;SDS011;37474;59.468;18.040;2022-10-30T08:58:12;1.50;;;0.60;;
50379;SDS011;37474;59.468;18.040;2022-10-30T09:00:44;1.67;;;0.70;;
50379;SDS011;37474;59.468;18.040;2022-10-30T09:03:11;1.63;;;0.60;;
50379;SDS011;37474;59.468;18.040;2022-10-30T09:05:41;1.63;;;0.40;;
50379;SDS011;37474;59.468;18.040;2022-10-30T09:08:11;2.00;;;0.53;;
50379;SDS011;37474;59.468;18.040;2022-10-30T09:10:39;2.53;;;0.63;;
50379;SDS011;37474;59.468;18.040;2022-10-30T09:13:09;2.77;;;0.50;;
50379;SDS011;37474;59.468;18.040;2022-10-30T09:15:42;1.03;;;0.30;;
50379;SDS011;37474;59.468;18.040;2022-10-30T09:18:10;1.27;;;0.40;;
50379;SDS011;37474;59.468;18.040;2022-10-30T09:20:37;0.80;;;0.30;;
50379;SDS011;37474;59.468;18.040;2022-10-30T09:23:09;3.15;;;0.60;;
50379;SDS011;37474;59.468;18.040;2022-10-30T09:25:37;4.18;;;0.77;;
50379;SDS011;37474;59.468;18.040;2022-10-30T09:28:05;0.50;;;0.30;;
50379;SDS011;37474;59.468;18.040;2022-10-30T09:30:35;0.63;;;0.30;;
50379;SDS011;37474;59.468;18.040;2022-10-30T09:33:04;3.38;;;1.08;;
50379;SDS011;37474;59.468;18.040;2022-10-30T09:35:32;2.00;;;0.47;;
50379;SDS011;37474;59.468;18.040;2022-10-30T09:38:05;2.97;;;1.03;;
50379;SDS011;37474;59.468;18.040;2022-10-30T09:40:36;2.10;;;0.47;;
50379;SDS011;37474;59.468;18.040;2022-10-30T09:43:22;6.50;;;0.53;;
50379;SDS011;37474;59.468;18.040;2022-10-30T09:49:12;2.47;;;0.67;;
50379;SDS011;37474;59.468;18.040;2022-10-30T09:52:05;1.10;;;0.30;;
50379;SDS011;37474;59.468;18.040;2022-10-30T09:54:46;2.67;;;0.57;;
50379;SDS011;37474;59.468;18.040;2022-10-30T09:57:24;1.80;;;0.70;;
50379;SDS011;37474;59.468;18.040;2022-10-30T10:00:03;2.63;;;0.53;;
50379;SDS011;37474;59.468;18.040;2022-10-30T10:02:37;3.17;;;1.03;;
50379;SDS011;37474;59.468;18.040;2022-10-30T10:05:16;1.93;;;0.57;;
50379;SDS011;37474;59.468;18.040;2022-10-30T10:07:48;3.23;;;0.70;;
50379;SDS011;37474;59.468;18.040;2022-10-30T10:10:24;1.47;;;0.50;;
50379;SDS011;37474;59.468;18.040;2022-10-30T10:13:03;0.90;;;0.40;;
50379;SDS011;37474;59.468;18.040;2022-10-30T10:15:39;2.97;;;0.90;;
50379;SDS011;37474;59.468;18.040;2022-10-30T10:18:15;1.67;;;0.40;;
50379;SDS011;37474;59.468;18.040;2022-10-30T10:20:49;1.07;;;0.33;;
50379;SDS011;37474;59.468;18.040;2022-10-30T10:23:25;1.60;;;0.40;;
50379;SDS011;37474;59.468;18.040;2022-10-30T10:26:02;2.97;;;0.77;;
50379;SDS011;37474;59.468;18.040;2022-10-30T10:28:41;3.30;;;0.57;;
50379;SDS011;37474;59.468;18.040;2022-10-30T10:31:24;3.93;;;0.60;;
50379;SDS011;37474;59.468;18.040;2022-10-30T10:34:08;1.83;;;0.57;;
50379;SDS011;37474;59.468;18.040;2022-10-30T10:37:03;3.17;;;0.60;;
50379;SDS011;37474;59.468;18.040;2022-10-30T10:39:45;1.25;;;0.40;;
50379;SDS011;37474;59.468;18.040;2022-10-30T10:42:31;3.47;;;0.33;;
50379;SDS011;37474;59.468;18.040;2022-10-30T10:45:11;1.52;;;0.50;;
50379;SDS011;37474;59.468;18.040;2022-10-30T10:47:51;1.38;;;0.38;;
50379;SDS011;37474;59.468;18.040;2022-10-30T10:50:45;1.60;;;0.40;;
50379;SDS011;37474;59.468;18.040;2022-10-30T10:53:21;0.67;;;0.30;;
50379;SDS011;37474;59.468;18.040;2022-10-30T10:55:56;0.73;;;0.40;;
50379;SDS011;37474;59.468;18.040;2022-10-30T10:58:29;2.33;;;0.37;;
50379;SDS011;37474;59.468;18.040;2022-10-30T11:00:59;1.03;;;0.50;;
50379;SDS011;37474;59.468;18.040;2022-10-30T11:03:31;1.43;;;0.50;;
50379;SDS011;37474;59.468;18.040;2022-10-30T11:06:10;1.23;;;0.30;;
50379;SDS011;37474;59.468;18.040;2022-10-30T11:08:51;2.00;;;0.60;;
50379;SDS011;37474;59.468;18.040;2022-10-30T11:11:26;4.07;;;1.00;;
50379;SDS011;37474;59.468;18.040;2022-10-30T11:13:58;1.73;;;0.47;;
50379;SDS011;37474;59.468;18.040;2022-10-30T11:16:26;4.63;;;0.85;;
50379;SDS011;37474;59.468;18.040;2022-10-30T11:19:04;0.97;;;0.63;;
50379;SDS011;37474;59.468;18.040;2022-10-30T11:21:37;4.47;;;1.20;;
50379;SDS011;37474;59.468;18.040;2022-10-30T11:24:24;2.43;;;0.50;;
50379;SDS011;37474;59.468;18.040;2022-10-30T11:26:54;1.17;;;0.50;;
50379;SDS011;37474;59.468;18.040;2022-10-30T11:29:27;1.63;;;0.50;;
50379;SDS011;37474;59.468;18.040;2022-10-30T11:32:16;2.53;;;0.53;;
50379;SDS011;37474;59.468;18.040;2022-10-30T11:34:59;1.90;;;0.33;;
50379;SDS011;37474;59.468;18.040;2022-10-30T11:37:30;3.28;;;0.40;;
50379;SDS011;37474;59.468;18.040;2022-10-30T11:40:06;0.93;;;0.40;;
50379;SDS011;37474;59.468;18.040;2022-10-30T11:42:44;2.53;;;0.53;;
50379;SDS011;37474;59.468;18.040;2022-10-30T11:45:14;2.30;;;0.50;;
50379;SDS011;37474;59.468;18.040;2022-10-30T11:47:45;3.10;;;0.53;;
50379;SDS011;37474;59.468;18.040;2022-10-30T11:50:15;1.77;;;0.50;;
50379;SDS011;37474;59.468;18.040;2022-10-30T11:52:46;1.90;;;0.57;;
50379;SDS011;37474;59.468;18.040;2022-10-30T11:55:19;3.27;;;0.40;;
50379;SDS011;37474;59.468;18.040;2022-10-30T11:57:54;4.30;;;0.73;;
50379;SDS011;37474;59.468;18.040;2022-10-30T12:00:25;0.93;;;0.40;;
50379;SDS011;37474;59.468;18.040;2022-10-30T12:02:55;1.13;;;0.20;;
50379;SDS011;37474;59.468;18.040;2022-10-30T12:05:29;1.53;;;0.30;;
50379;SDS011;37474;59.468;18.040;2022-10-30T12:08:16;2.70;;;0.50;;
50379;SDS011;37474;59.468;18.040;2022-10-30T12:10:59;2.73;;;0.53;;
50379;SDS011;37474;59.468;18.040;2022-10-30T12:13:31;1.57;;;0.30;;
50379;SDS011;37474;59.468;18.040;2022-10-30T12:16:07;1.90;;;0.50;;
50379;SDS011;37474;59.468;18.040;2022-10-30T12:18:40;0.53;;;0.30;;
50379;SDS011;37474;59.468;18.040;2022-10-30T12:21:17;1.23;;;0.40;;
50379;SDS011;37474;59.468;18.040;2022-10-30T12:23:49;1.63;;;0.30;;
50379;SDS011;37474;59.468;18.040;2022-10-30T12:26:22;1.13;;;0.43;;
50379;SDS011;37474;59.468;18.040;2022-10-30T12:31:22;1.23;;;0.40;;
50379;SDS011;37474;59.468;18.040;2022-10-30T12:34:00;3.73;;;0.50;;
50379;SDS011;37474;59.468;18.040;2022-10-30T12:36:43;1.37;;;0.40;;
50379;SDS011;37474;59.468;18.040;2022-10-30T12:39:17;2.90;;;0.60;;
50379;SDS011;37474;59.468;18.040;2022-10-30T12:41:54;1.47;;;0.40;;
50379;SDS011;37474;59.468;18.040;2022-10-30T12:44:27;2.70;;;0.30;;
50379;SDS011;37474;59.468;18.040;2022-10-30T12:47:02;4.20;;;0.47;;
50379;SDS011;37474;59.468;18.040;2022-10-30T12:49:38;1.17;;;0.40;;
50379;SDS011;37474;59.468;18.040;2022-10-30T12:52:10;2.07;;;0.40;;
50379;SDS011;37474;59.468;18.040;2022-10-30T12:54:43;4.50;;;0.43;;
50379;SDS011;37474;59.468;18.040;2022-10-30T12:57:21;1.07;;;0.57;;
50379;SDS011;37474;59.468;18.040;2022-10-30T12:59:55;2.87;;;0.43;;
50379;SDS011;37474;59.468;18.040;2022-10-30T13:05:24;2.73;;;0.60;;
50379;SDS011;37474;59.468;18.040;2022-10-30T13:08:03;1.07;;;0.33;;
50379;SDS011;37474;59.468;18.040;2022-10-30T13:10:40;3.00;;;0.70;;
50379;SDS011;37474;59.468;18.040;2022-10-30T13:13:15;2.97;;;0.43;;
50379;SDS011;37474;59.468;18.040;2022-10-30T13:15:47;3.10;;;0.90;;
50379;SDS011;37474;59.468;18.040;2022-10-30T13:18:23;1.43;;;0.60;;
50379;SDS011;37474;59.468;18.040;2022-10-30T13:20:55;1.90;;;0.57;;
50379;SDS011;37474;59.468;18.040;2022-10-30T13:23:34;1.27;;;0.50;;
50379;SDS011;37474;59.468;18.040;2022-10-30T13:26:14;1.40;;;0.40;;
50379;SDS011;37474;59.468;18.040;2022-10-30T13:28:54;2.95;;;0.70;;
50379;SDS011;37474;59.468;18.040;2022-10-30T13:31:31;1.30;;;0.50;;
50379;SDS011;37474;59.468;18.040;2022-10-30T13:34:10;1.40;;;0.50;;
50379;SDS011;37474;59.468;18.040;2022-10-30T13:36:53;2.47;;;0.90;;
50379;SDS011;37474;59.468;18.040;2022-10-30T13:39:29;2.60;;;0.70;;
50379;SDS011;37474;59.468;18.040;2022-10-30T13:42:09;2.53;;;0.50;;
50379;SDS011;37474;59.468;18.040;2022-10-30T13:44:54;3.10;;;0.57;;
50379;SDS011;37474;59.468;18.040;2022-10-30T13:47:33;2.23;;;0.60;;
50379;SDS011;37474;59.468;18.040;2022-10-30T13:50:14;4.07;;;0.70;;
50379;SDS011;37474;59.468;18.040;2022-10-30T13:52:53;4.00;;;0.80;;
50379;SDS011;37474;59.468;18.040;2022-10-30T13:55:28;3.37;;;0.50;;
50379;SDS011;37474;59.468;18.040;2022-10-30T13:57:59;1.23;;;0.50;;
50379;SDS011;37474;59.468;18.040;2022-10-30T14:03:30;3.80;;;0.73;;
50379;SDS011;37474;59.468;18.040;2022-10-30T14:06:12;1.93;;;0.40;;
50379;SDS011;37474;59.468;18.040;2022-10-30T14:08:53;2.77;;;0.60;;
50379;SDS011;37474;59.468;18.040;2022-10-30T14:14:05;2.57;;;0.47;;
50379;SDS011;37474;59.468;18.040;2022-10-30T14:17:12;1.67;;;0.60;;
50379;SDS011;37474;59.468;18.040;2022-10-30T14:25:33;1.43;;;0.50;;
50379;SDS011;37474;59.468;18.040;2022-10-30T14:28:03;1.98;;;0.50;;
50379;SDS011;37474;59.468;18.040;2022-10-30T14:30:32;2.07;;;0.40;;
50379;SDS011;37474;59.468;18.040;2022-10-30T14:33:03;4.55;;;0.60;;
50379;SDS011;37474;59.468;18.040;2022-10-30T14:35:39;0.70;;;0.47;;
50379;SDS011;37474;59.468;18.040;2022-10-30T14:38:14;1.07;;;0.53;;
50379;SDS011;37474;59.468;18.040;2022-10-30T14:41:13;2.67;;;0.53;;
50379;SDS011;37474;59.468;18.040;2022-10-30T14:43:57;0.93;;;0.60;;
50379;SDS011;37474;59.468;18.040;2022-10-30T14:46:34;1.53;;;0.60;;
50379;SDS011;37474;59.468;18.040;2022-10-30T14:49:14;2.33;;;0.80;;
50379;SDS011;37474;59.468;18.040;2022-10-30T14:52:09;8.70;;;3.27;;
50379;SDS011;37474;59.468;18.040;2022-10-30T14:54:44;10.07;;;4.10;;
50379;SDS011;37474;59.468;18.040;2022-10-30T14:57:41;9.53;;;3.50;;
50379;SDS011;37474;59.468;18.040;2022-10-30T15:00:27;10.07;;;3.97;;
50379;SDS011;37474;59.468;18.040;2022-10-30T15:03:20;8.67;;;3.17;;
50379;SDS011;37474;59.468;18.040;2022-10-30T15:06:11;9.60;;;3.50;;
50379;SDS011;37474;59.468;18.040;2022-10-30T15:08:54;9.10;;;4.00;;
50379;SDS011;37474;59.468;18.040;2022-10-30T15:11:44;7.00;;;3.37;;
50379;SDS011;37474;59.468;18.040;2022-10-30T15:14:28;25.13;;;4.67;;
50379;SDS011;37474;59.468;18.040;2022-10-30T15:17:24;10.57;;;5.40;;
50379;SDS011;37474;59.468;18.040;2022-10-30T15:19:59;12.13;;;5.47;;
50379;SDS011;37474;59.468;18.040;2022-10-30T15:22:32;10.43;;;4.40;;
50379;SDS011;37474;59.468;18.040;2022-10-30T15:25:03;12.40;;;4.30;;
50379;SDS011;37474;59.468;18.040;2022-10-30T15:27:44;10.17;;;4.37;;
50379;SDS011;37474;59.468;18.040;2022-10-30T15:30:16;9.37;;;4.00;;